sensor_id;sensor_type;location;lat;lon;timestamp;temperature;humidity
49132;DHT22;35149;51.196;6.204;2023-03-23T00:01:24;16.00;62.20
49132;DHT22;35149;51.196;6.204;2023-03-23T00:03:53;16.00;62.20
49132;DHT22;35149;51.196;6.204;2023-03-23T00:06:27;16.00;62.20
49132;DHT22;35149;51.196;6.204;2023-03-23T00:08:55;16.00;62.40
49132;DHT22;35149;51.196;6.204;2023-03-23T00:11:31;16.00;62.30
49132;DHT22;35149;51.196;6.204;2023-03-23T00:13:59;16.00;62.30
49132;DHT22;35149;51.196;6.204;2023-03-23T00:16:28;16.00;62.40
49132;DHT22;35149;51.196;6.204;2023-03-23T00:19:02;16.00;62.40
49132;DHT22;35149;51.196;6.204;2023-03-23T00:21:33;16.00;62.50
49132;DHT22;35149;51.196;6.204;2023-03-23T00:26:35;16.00;63.20
49132;DHT22;35149;51.196;6.204;2023-03-23T00:29:03;15.90;62.50
49132;DHT22;35149;51.196;6.204;2023-03-23T00:31:32;15.90;62.60
49132;DHT22;35149;51.196;6.204;2023-03-23T00:34:03;15.90;62.60
49132;DHT22;35149;51.196;6.204;2023-03-23T00:36:31;15.90;62.80
49132;DHT22;35149;51.196;6.204;2023-03-23T00:39:03;15.90;62.70
49132;DHT22;35149;51.196;6.204;2023-03-23T00:41:29;15.90;62.60
49132;DHT22;35149;51.196;6.204;2023-03-23T00:43:57;15.90;62.70
49132;DHT22;35149;51.196;6.204;2023-03-23T00:46:24;15.90;62.70
49132;DHT22;35149;51.196;6.204;2023-03-23T00:48:50;15.90;62.80
49132;DHT22;35149;51.196;6.204;2023-03-23T00:51:23;15.90;62.80
49132;DHT22;35149;51.196;6.204;2023-03-23T00:53:49;15.90;62.90
49132;DHT22;35149;51.196;6.204;2023-03-23T00:56:16;15.90;62.90
49132;DHT22;35149;51.196;6.204;2023-03-23T00:58:45;15.90;62.90
49132;DHT22;35149;51.196;6.204;2023-03-23T01:01:11;15.90;63.00
49132;DHT22;35149;51.196;6.204;2023-03-23T01:03:39;15.90;62.90
49132;DHT22;35149;51.196;6.204;2023-03-23T01:06:10;15.90;63.00
49132;DHT22;35149;51.196;6.204;2023-03-23T01:08:42;15.80;63.10
49132;DHT22;35149;51.196;6.204;2023-03-23T01:11:15;15.80;63.10
49132;DHT22;35149;51.196;6.204;2023-03-23T01:13:42;15.90;63.10
49132;DHT22;35149;51.196;6.204;2023-03-23T01:16:09;15.90;63.20
49132;DHT22;35149;51.196;6.204;2023-03-23T01:18:35;15.80;63.20
49132;DHT22;35149;51.196;6.204;2023-03-23T01:21:13;15.90;63.20
49132;DHT22;35149;51.196;6.204;2023-03-23T01:23:41;15.90;63.30
49132;DHT22;35149;51.196;6.204;2023-03-23T01:26:09;15.80;63.20
49132;DHT22;35149;51.196;6.204;2023-03-23T01:28:38;15.90;63.30
49132;DHT22;35149;51.196;6.204;2023-03-23T01:31:09;15.90;63.30
49132;DHT22;35149;51.196;6.204;2023-03-23T01:33:38;15.80;63.30
49132;DHT22;35149;51.196;6.204;2023-03-23T01:36:07;15.80;63.30
49132;DHT22;35149;51.196;6.204;2023-03-23T01:38:36;15.90;63.60
49132;DHT22;35149;51.196;6.204;2023-03-23T01:41:05;15.90;63.40
49132;DHT22;35149;51.196;6.204;2023-03-23T01:43:31;15.90;63.60
49132;DHT22;35149;51.196;6.204;2023-03-23T01:45:57;15.80;63.60
49132;DHT22;35149;51.196;6.204;2023-03-23T01:48:32;15.80;63.60
49132;DHT22;35149;51.196;6.204;2023-03-23T01:51:14;15.80;63.90
49132;DHT22;35149;51.196;6.204;2023-03-23T01:54:00;15.80;64.10
49132;DHT22;35149;51.196;6.204;2023-03-23T01:56:38;15.80;64.00
49132;DHT22;35149;51.196;6.204;2023-03-23T01:59:08;15.80;64.20
49132;DHT22;35149;51.196;6.204;2023-03-23T02:01:37;15.80;63.90
49132;DHT22;35149;51.196;6.204;2023-03-23T02:04:08;15.80;63.60
49132;DHT22;35149;51.196;6.204;2023-03-23T02:06:36;15.80;63.80
49132;DHT22;35149;51.196;6.204;2023-03-23T02:09:14;15.80;63.90
49132;DHT22;35149;51.196;6.204;2023-03-23T02:11:43;15.80;64.10
49132;DHT22;35149;51.196;6.204;2023-03-23T02:14:09;15.70;64.00
49132;DHT22;35149;51.196;6.204;2023-03-23T02:34:33;15.70;64.60
49132;DHT22;35149;51.196;6.204;2023-03-23T02:37:10;15.60;64.40
49132;DHT22;35149;51.196;6.204;2023-03-23T02:42:07;15.60;64.50
49132;DHT22;35149;51.196;6.204;2023-03-23T02:44:39;15.60;64.50
49132;DHT22;35149;51.196;6.204;2023-03-23T02:47:09;15.60;64.50
49132;DHT22;35149;51.196;6.204;2023-03-23T02:49:37;15.60;64.60
49132;DHT22;35149;51.196;6.204;2023-03-23T02:52:09;15.60;64.60
49132;DHT22;35149;51.196;6.204;2023-03-23T02:54:39;15.60;64.70
49132;DHT22;35149;51.196;6.204;2023-03-23T02:57:05;15.60;64.70
49132;DHT22;35149;51.196;6.204;2023-03-23T02:59:32;15.60;64.70
49132;DHT22;35149;51.196;6.204;2023-03-23T03:02:05;15.60;64.60
49132;DHT22;35149;51.196;6.204;2023-03-23T03:04:32;15.60;64.70
49132;DHT22;35149;51.196;6.204;2023-03-23T03:07:09;15.70;64.60
49132;DHT22;35149;51.196;6.204;2023-03-23T03:09:47;15.70;64.60
49132;DHT22;35149;51.196;6.204;2023-03-23T03:12:22;15.70;64.40
49132;DHT22;35149;51.196;6.204;2023-03-23T03:14:51;15.70;64.10
49132;DHT22;35149;51.196;6.204;2023-03-23T03:17:26;15.90;65.00
49132;DHT22;35149;51.196;6.204;2023-03-23T03:20:01;15.70;64.20
49132;DHT22;35149;51.196;6.204;2023-03-23T03:22:38;15.70;64.50
49132;DHT22;35149;51.196;6.204;2023-03-23T03:25:08;15.60;64.50
49132;DHT22;35149;51.196;6.204;2023-03-23T03:27:35;15.60;64.60
49132;DHT22;35149;51.196;6.204;2023-03-23T03:30:19;15.60;64.70
49132;DHT22;35149;51.196;6.204;2023-03-23T03:32:49;15.60;64.80
49132;DHT22;35149;51.196;6.204;2023-03-23T03:35:24;15.60;64.90
49132;DHT22;35149;51.196;6.204;2023-03-23T03:37:50;15.60;65.00
49132;DHT22;35149;51.196;6.204;2023-03-23T03:40:19;15.60;64.80
49132;DHT22;35149;51.196;6.204;2023-03-23T03:42:45;15.50;64.80
49132;DHT22;35149;51.196;6.204;2023-03-23T03:45:16;15.50;64.80
49132;DHT22;35149;51.196;6.204;2023-03-23T03:47:46;15.50;64.90
49132;DHT22;35149;51.196;6.204;2023-03-23T03:50:15;15.60;65.60
49132;DHT22;35149;51.196;6.204;2023-03-23T03:52:42;15.50;64.90
49132;DHT22;35149;51.196;6.204;2023-03-23T03:55:09;15.50;65.00
49132;DHT22;35149;51.196;6.204;2023-03-23T03:57:38;15.50;64.90
49132;DHT22;35149;51.196;6.204;2023-03-23T04:00:06;15.60;65.00
49132;DHT22;35149;51.196;6.204;2023-03-23T04:02:55;15.60;65.00
49132;DHT22;35149;51.196;6.204;2023-03-23T04:05:40;15.60;64.90
49132;DHT22;35149;51.196;6.204;2023-03-23T04:08:07;15.60;64.80
49132;DHT22;35149;51.196;6.204;2023-03-23T04:10:35;15.60;64.80
49132;DHT22;35149;51.196;6.204;2023-03-23T04:13:02;15.60;65.60
49132;DHT22;35149;51.196;6.204;2023-03-23T04:15:50;15.60;64.90
49132;DHT22;35149;51.196;6.204;2023-03-23T04:18:19;15.60;64.80
49132;DHT22;35149;51.196;6.204;2023-03-23T04:20:48;15.60;64.90
49132;DHT22;35149;51.196;6.204;2023-03-23T04:23:22;15.60;64.80
49132;DHT22;35149;51.196;6.204;2023-03-23T04:25:50;15.60;64.80
49132;DHT22;35149;51.196;6.204;2023-03-23T04:28:17;15.60;64.80
49132;DHT22;35149;51.196;6.204;2023-03-23T04:30:58;15.60;64.80
49132;DHT22;35149;51.196;6.204;2023-03-23T04:33:27;15.60;64.80
49132;DHT22;35149;51.196;6.204;2023-03-23T04:35:59;15.60;64.80
49132;DHT22;35149;51.196;6.204;2023-03-23T04:38:38;15.60;64.80
49132;DHT22;35149;51.196;6.204;2023-03-23T04:41:11;15.60;64.80
49132;DHT22;35149;51.196;6.204;2023-03-23T04:43:43;15.60;64.80
49132;DHT22;35149;51.196;6.204;2023-03-23T04:46:26;15.60;64.70
49132;DHT22;35149;51.196;6.204;2023-03-23T04:48:54;15.60;64.80
49132;DHT22;35149;51.196;6.204;2023-03-23T04:51:28;15.60;64.80
49132;DHT22;35149;51.196;6.204;2023-03-23T04:53:54;15.50;64.70
49132;DHT22;35149;51.196;6.204;2023-03-23T04:56:22;15.50;64.70
49132;DHT22;35149;51.196;6.204;2023-03-23T04:58:47;15.50;64.70
49132;DHT22;35149;51.196;6.204;2023-03-23T05:01:22;15.50;64.70
49132;DHT22;35149;51.196;6.204;2023-03-23T05:04:01;15.50;64.70
49132;DHT22;35149;51.196;6.204;2023-03-23T05:06:27;15.50;64.70
49132;DHT22;35149;51.196;6.204;2023-03-23T05:09:01;15.50;64.70
49132;DHT22;35149;51.196;6.204;2023-03-23T05:11:29;15.50;64.70
49132;DHT22;35149;51.196;6.204;2023-03-23T05:13:55;15.50;64.60
49132;DHT22;35149;51.196;6.204;2023-03-23T05:16:24;15.50;64.60
49132;DHT22;35149;51.196;6.204;2023-03-23T05:18:50;15.50;64.60
49132;DHT22;35149;51.196;6.204;2023-03-23T05:21:17;15.50;64.50
49132;DHT22;35149;51.196;6.204;2023-03-23T05:23:48;15.50;64.50
49132;DHT22;35149;51.196;6.204;2023-03-23T05:26:22;15.50;64.50
49132;DHT22;35149;51.196;6.204;2023-03-23T05:28:56;15.50;64.50
49132;DHT22;35149;51.196;6.204;2023-03-23T05:31:26;15.50;64.40
49132;DHT22;35149;51.196;6.204;2023-03-23T05:33:52;15.50;64.40
49132;DHT22;35149;51.196;6.204;2023-03-23T05:36:25;15.50;64.40
49132;DHT22;35149;51.196;6.204;2023-03-23T05:39:05;15.50;64.30
49132;DHT22;35149;51.196;6.204;2023-03-23T05:41:51;15.50;64.20
49132;DHT22;35149;51.196;6.204;2023-03-23T05:44:17;15.50;64.10
49132;DHT22;35149;51.196;6.204;2023-03-23T05:46:50;15.50;64.10
49132;DHT22;35149;51.196;6.204;2023-03-23T05:49:18;15.50;64.10
49132;DHT22;35149;51.196;6.204;2023-03-23T05:51:46;15.50;64.00
49132;DHT22;35149;51.196;6.204;2023-03-23T05:54:13;15.50;63.90
49132;DHT22;35149;51.196;6.204;2023-03-23T05:56:40;15.50;63.90
49132;DHT22;35149;51.196;6.204;2023-03-23T05:59:15;15.50;63.80
49132;DHT22;35149;51.196;6.204;2023-03-23T06:01:44;15.50;63.80
49132;DHT22;35149;51.196;6.204;2023-03-23T06:04:10;15.50;63.80
49132;DHT22;35149;51.196;6.204;2023-03-23T06:06:48;15.50;63.70
49132;DHT22;35149;51.196;6.204;2023-03-23T06:09:14;15.50;63.60
49132;DHT22;35149;51.196;6.204;2023-03-23T06:12:01;15.50;63.60
49132;DHT22;35149;51.196;6.204;2023-03-23T06:14:41;15.60;63.50
49132;DHT22;35149;51.196;6.204;2023-03-23T06:17:07;15.60;63.40
49132;DHT22;35149;51.196;6.204;2023-03-23T06:19:34;15.60;63.30
49132;DHT22;35149;51.196;6.204;2023-03-23T06:22:08;15.60;63.20
49132;DHT22;35149;51.196;6.204;2023-03-23T06:25:04;15.60;63.10
49132;DHT22;35149;51.196;6.204;2023-03-23T06:27:37;15.70;63.10
49132;DHT22;35149;51.196;6.204;2023-03-23T06:30:04;15.70;62.90
49132;DHT22;35149;51.196;6.204;2023-03-23T06:32:32;15.70;62.90
49132;DHT22;35149;51.196;6.204;2023-03-23T06:34:58;15.70;62.80
49132;DHT22;35149;51.196;6.204;2023-03-23T06:37:43;15.70;62.80
49132;DHT22;35149;51.196;6.204;2023-03-23T06:40:28;15.80;62.90
49132;DHT22;35149;51.196;6.204;2023-03-23T06:42:58;15.80;62.70
49132;DHT22;35149;51.196;6.204;2023-03-23T06:45:45;15.80;62.60
49132;DHT22;35149;51.196;6.204;2023-03-23T06:48:43;15.80;62.50
49132;DHT22;35149;51.196;6.204;2023-03-23T06:51:14;15.90;62.50
49132;DHT22;35149;51.196;6.204;2023-03-23T06:53:44;15.90;62.40
49132;DHT22;35149;51.196;6.204;2023-03-23T06:56:12;15.90;62.40
49132;DHT22;35149;51.196;6.204;2023-03-23T06:58:40;15.90;62.20
49132;DHT22;35149;51.196;6.204;2023-03-23T07:01:09;15.90;62.20
49132;DHT22;35149;51.196;6.204;2023-03-23T07:03:41;15.90;62.20
49132;DHT22;35149;51.196;6.204;2023-03-23T07:06:10;15.90;62.20
49132;DHT22;35149;51.196;6.204;2023-03-23T07:08:43;15.90;62.20
49132;DHT22;35149;51.196;6.204;2023-03-23T07:11:13;16.00;62.30
49132;DHT22;35149;51.196;6.204;2023-03-23T07:13:39;16.00;62.10
49132;DHT22;35149;51.196;6.204;2023-03-23T07:16:06;16.00;62.10
49132;DHT22;35149;51.196;6.204;2023-03-23T07:18:32;16.00;62.00
49132;DHT22;35149;51.196;6.204;2023-03-23T07:20:59;16.00;61.80
49132;DHT22;35149;51.196;6.204;2023-03-23T07:23:31;16.10;61.70
49132;DHT22;35149;51.196;6.204;2023-03-23T07:26:09;16.10;61.50
49132;DHT22;35149;51.196;6.204;2023-03-23T07:28:38;16.10;61.40
49132;DHT22;35149;51.196;6.204;2023-03-23T07:31:24;16.10;61.40
49132;DHT22;35149;51.196;6.204;2023-03-23T07:33:50;16.10;61.30
49132;DHT22;35149;51.196;6.204;2023-03-23T07:36:17;16.10;61.20
49132;DHT22;35149;51.196;6.204;2023-03-23T07:38:44;16.20;61.20
49132;DHT22;35149;51.196;6.204;2023-03-23T07:41:09;16.20;61.00
49132;DHT22;35149;51.196;6.204;2023-03-23T07:43:38;16.20;61.00
49132;DHT22;35149;51.196;6.204;2023-03-23T07:46:09;16.20;60.80
49132;DHT22;35149;51.196;6.204;2023-03-23T07:48:47;16.20;61.00
49132;DHT22;35149;51.196;6.204;2023-03-23T07:51:16;16.20;60.80
49132;DHT22;35149;51.196;6.204;2023-03-23T07:53:43;16.30;60.70
49132;DHT22;35149;51.196;6.204;2023-03-23T07:56:47;16.30;60.70
49132;DHT22;35149;51.196;6.204;2023-03-23T07:59:16;16.20;60.70
49132;DHT22;35149;51.196;6.204;2023-03-23T08:01:43;16.30;60.70
49132;DHT22;35149;51.196;6.204;2023-03-23T08:04:27;16.40;60.70
49132;DHT22;35149;51.196;6.204;2023-03-23T08:07:11;16.40;60.50
49132;DHT22;35149;51.196;6.204;2023-03-23T08:09:53;16.40;60.40
49132;DHT22;35149;51.196;6.204;2023-03-23T08:12:31;16.50;60.20
49132;DHT22;35149;51.196;6.204;2023-03-23T08:15:15;16.50;60.20
49132;DHT22;35149;51.196;6.204;2023-03-23T08:17:52;16.60;60.20
49132;DHT22;35149;51.196;6.204;2023-03-23T08:20:18;16.60;60.10
49132;DHT22;35149;51.196;6.204;2023-03-23T08:22:54;16.60;59.90
49132;DHT22;35149;51.196;6.204;2023-03-23T08:25:39;16.70;59.90
49132;DHT22;35149;51.196;6.204;2023-03-23T08:28:23;16.70;59.70
49132;DHT22;35149;51.196;6.204;2023-03-23T08:31:13;16.80;59.60
49132;DHT22;35149;51.196;6.204;2023-03-23T08:34:04;16.80;59.60
49132;DHT22;35149;51.196;6.204;2023-03-23T08:36:55;16.90;59.30
49132;DHT22;35149;51.196;6.204;2023-03-23T08:39:53;17.00;59.30
49132;DHT22;35149;51.196;6.204;2023-03-23T08:42:43;17.00;59.00
49132;DHT22;35149;51.196;6.204;2023-03-23T08:45:29;17.10;58.60
49132;DHT22;35149;51.196;6.204;2023-03-23T08:48:03;17.10;58.60
49132;DHT22;35149;51.196;6.204;2023-03-23T08:50:41;17.00;58.40
49132;DHT22;35149;51.196;6.204;2023-03-23T08:53:26;17.00;58.50
49132;DHT22;35149;51.196;6.204;2023-03-23T08:56:09;17.00;58.30
49132;DHT22;35149;51.196;6.204;2023-03-23T08:58:45;17.00;58.30
49132;DHT22;35149;51.196;6.204;2023-03-23T09:01:37;16.90;58.40
49132;DHT22;35149;51.196;6.204;2023-03-23T09:04:18;16.90;58.20
49132;DHT22;35149;51.196;6.204;2023-03-23T09:07:02;16.90;58.40
49132;DHT22;35149;51.196;6.204;2023-03-23T09:09:28;16.90;58.50
49132;DHT22;35149;51.196;6.204;2023-03-23T09:11:54;16.80;58.60
49132;DHT22;35149;51.196;6.204;2023-03-23T09:14:20;16.80;59.50
49132;DHT22;35149;51.196;6.204;2023-03-23T09:16:45;16.70;62.60
49132;DHT22;35149;51.196;6.204;2023-03-23T09:19:11;16.50;63.10
49132;DHT22;35149;51.196;6.204;2023-03-23T09:21:38;16.20;63.90
49132;DHT22;35149;51.196;6.204;2023-03-23T09:24:04;15.80;64.50
49132;DHT22;35149;51.196;6.204;2023-03-23T09:26:30;15.50;65.30
49132;DHT22;35149;51.196;6.204;2023-03-23T09:28:56;15.20;66.10
49132;DHT22;35149;51.196;6.204;2023-03-23T09:31:23;15.00;66.80
49132;DHT22;35149;51.196;6.204;2023-03-23T09:33:52;14.70;67.50
49132;DHT22;35149;51.196;6.204;2023-03-23T09:36:19;14.50;68.40
49132;DHT22;35149;51.196;6.204;2023-03-23T09:38:47;14.30;69.20
49132;DHT22;35149;51.196;6.204;2023-03-23T09:41:34;14.10;69.90
49132;DHT22;35149;51.196;6.204;2023-03-23T09:47:23;13.80;72.50
49132;DHT22;35149;51.196;6.204;2023-03-23T09:49:59;13.70;72.90
49132;DHT22;35149;51.196;6.204;2023-03-23T09:52:40;13.60;72.60
49132;DHT22;35149;51.196;6.204;2023-03-23T09:55:13;13.60;73.10
49132;DHT22;35149;51.196;6.204;2023-03-23T09:57:59;13.50;73.20
49132;DHT22;35149;51.196;6.204;2023-03-23T10:00:34;13.40;74.30
49132;DHT22;35149;51.196;6.204;2023-03-23T10:03:13;13.40;73.50
49132;DHT22;35149;51.196;6.204;2023-03-23T10:06:00;13.30;73.90
49132;DHT22;35149;51.196;6.204;2023-03-23T10:08:27;13.30;74.00
49132;DHT22;35149;51.196;6.204;2023-03-23T10:11:15;13.30;74.60
49132;DHT22;35149;51.196;6.204;2023-03-23T10:16:34;13.30;76.60
49132;DHT22;35149;51.196;6.204;2023-03-23T10:19:20;13.30;75.80
49132;DHT22;35149;51.196;6.204;2023-03-23T10:21:50;13.30;76.80
49132;DHT22;35149;51.196;6.204;2023-03-23T10:24:21;13.30;76.40
49132;DHT22;35149;51.196;6.204;2023-03-23T10:27:08;13.40;76.40
49132;DHT22;35149;51.196;6.204;2023-03-23T10:29:40;13.40;77.00
49132;DHT22;35149;51.196;6.204;2023-03-23T10:32:23;13.40;76.50
49132;DHT22;35149;51.196;6.204;2023-03-23T10:34:56;13.40;77.00
49132;DHT22;35149;51.196;6.204;2023-03-23T10:37:24;13.40;76.70
49132;DHT22;35149;51.196;6.204;2023-03-23T10:39:59;13.50;78.50
49132;DHT22;35149;51.196;6.204;2023-03-23T10:42:35;13.50;77.10
49132;DHT22;35149;51.196;6.204;2023-03-23T10:45:28;13.50;77.20
49132;DHT22;35149;51.196;6.204;2023-03-23T10:48:11;13.50;78.90
49132;DHT22;35149;51.196;6.204;2023-03-23T10:50:38;13.60;78.90
49132;DHT22;35149;51.196;6.204;2023-03-23T10:53:22;13.60;77.60
49132;DHT22;35149;51.196;6.204;2023-03-23T10:55:49;13.60;78.60
49132;DHT22;35149;51.196;6.204;2023-03-23T10:58:33;13.60;77.60
49132;DHT22;35149;51.196;6.204;2023-03-23T11:01:00;13.70;79.00
49132;DHT22;35149;51.196;6.204;2023-03-23T11:03:42;13.70;77.70
49132;DHT22;35149;51.196;6.204;2023-03-23T11:06:29;13.70;78.60
49132;DHT22;35149;51.196;6.204;2023-03-23T11:09:17;13.70;77.90
49132;DHT22;35149;51.196;6.204;2023-03-23T11:11:54;13.80;79.30
49132;DHT22;35149;51.196;6.204;2023-03-23T11:14:32;13.80;78.80
49132;DHT22;35149;51.196;6.204;2023-03-23T11:17:04;13.80;78.60
49132;DHT22;35149;51.196;6.204;2023-03-23T11:19:36;13.80;77.80
49132;DHT22;35149;51.196;6.204;2023-03-23T11:22:12;13.80;78.10
49132;DHT22;35149;51.196;6.204;2023-03-23T11:24:45;13.80;78.40
49132;DHT22;35149;51.196;6.204;2023-03-23T11:27:15;13.80;78.70
49132;DHT22;35149;51.196;6.204;2023-03-23T11:33:00;13.90;80.40
49132;DHT22;35149;51.196;6.204;2023-03-23T11:35:28;14.00;80.00
49132;DHT22;35149;51.196;6.204;2023-03-23T11:37:56;14.10;80.10
49132;DHT22;35149;51.196;6.204;2023-03-23T11:40:27;14.20;80.00
49132;DHT22;35149;51.196;6.204;2023-03-23T11:43:22;14.20;80.20
49132;DHT22;35149;51.196;6.204;2023-03-23T11:49:20;14.30;80.70
49132;DHT22;35149;51.196;6.204;2023-03-23T11:51:44;14.50;80.80
49132;DHT22;35149;51.196;6.204;2023-03-23T11:56:49;14.50;80.50
49132;DHT22;35149;51.196;6.204;2023-03-23T11:59:25;14.50;80.00
49132;DHT22;35149;51.196;6.204;2023-03-23T12:02:00;14.60;80.60
49132;DHT22;35149;51.196;6.204;2023-03-23T12:07:57;14.70;81.60
49132;DHT22;35149;51.196;6.204;2023-03-23T12:10:30;14.70;80.20
49132;DHT22;35149;51.196;6.204;2023-03-23T12:24:59;14.70;80.50
49132;DHT22;35149;51.196;6.204;2023-03-23T12:32:56;14.70;79.80
49132;DHT22;35149;51.196;6.204;2023-03-23T12:35:35;14.70;79.00
49132;DHT22;35149;51.196;6.204;2023-03-23T12:40:33;14.70;79.60
49132;DHT22;35149;51.196;6.204;2023-03-23T12:43:23;14.70;80.30
49132;DHT22;35149;51.196;6.204;2023-03-23T12:49:06;14.80;82.20
49132;DHT22;35149;51.196;6.204;2023-03-23T12:54:29;14.90;81.50
49132;DHT22;35149;51.196;6.204;2023-03-23T12:59:46;15.00;80.90
49132;DHT22;35149;51.196;6.204;2023-03-23T13:02:33;15.00;81.40
49132;DHT22;35149;51.196;6.204;2023-03-23T13:05:09;15.10;81.50
49132;DHT22;35149;51.196;6.204;2023-03-23T13:07:48;15.20;82.00
49132;DHT22;35149;51.196;6.204;2023-03-23T13:10:32;15.30;82.30
49132;DHT22;35149;51.196;6.204;2023-03-23T13:12:59;15.40;83.30
49132;DHT22;35149;51.196;6.204;2023-03-23T13:15:44;15.50;83.10
49132;DHT22;35149;51.196;6.204;2023-03-23T13:18:21;15.60;83.70
49132;DHT22;35149;51.196;6.204;2023-03-23T13:23:49;15.90;82.30
49132;DHT22;35149;51.196;6.204;2023-03-23T13:26:19;15.90;82.30
49132;DHT22;35149;51.196;6.204;2023-03-23T13:28:56;16.00;81.80
49132;DHT22;35149;51.196;6.204;2023-03-23T13:33:53;16.10;80.90
49132;DHT22;35149;51.196;6.204;2023-03-23T13:39:25;16.20;81.10
49132;DHT22;35149;51.196;6.204;2023-03-23T13:45:18;16.30;82.70
49132;DHT22;35149;51.196;6.204;2023-03-23T13:47:44;16.50;83.70
49132;DHT22;35149;51.196;6.204;2023-03-23T13:50:25;16.60;82.60
49132;DHT22;35149;51.196;6.204;2023-03-23T13:52:58;16.80;82.60
49132;DHT22;35149;51.196;6.204;2023-03-23T14:05:36;17.70;79.30
49132;DHT22;35149;51.196;6.204;2023-03-23T14:10:35;17.80;76.60
49132;DHT22;35149;51.196;6.204;2023-03-23T14:13:04;17.80;75.80
49132;DHT22;35149;51.196;6.204;2023-03-23T14:15:37;17.80;75.30
49132;DHT22;35149;51.196;6.204;2023-03-23T14:18:03;17.80;74.10
49132;DHT22;35149;51.196;6.204;2023-03-23T14:20:36;17.80;73.40
49132;DHT22;35149;51.196;6.204;2023-03-23T14:23:01;17.70;72.30
49132;DHT22;35149;51.196;6.204;2023-03-23T14:25:30;17.60;72.50
49132;DHT22;35149;51.196;6.204;2023-03-23T14:27:58;17.50;72.20
49132;DHT22;35149;51.196;6.204;2023-03-23T14:30:35;17.40;72.60
49132;DHT22;35149;51.196;6.204;2023-03-23T14:33:06;17.40;72.70
49132;DHT22;35149;51.196;6.204;2023-03-23T14:35:40;17.30;72.60
49132;DHT22;35149;51.196;6.204;2023-03-23T14:38:15;17.20;72.50
49132;DHT22;35149;51.196;6.204;2023-03-23T14:40:42;17.10;72.80
49132;DHT22;35149;51.196;6.204;2023-03-23T14:43:10;17.10;73.00
49132;DHT22;35149;51.196;6.204;2023-03-23T14:45:38;17.00;73.40
49132;DHT22;35149;51.196;6.204;2023-03-23T14:48:06;17.00;73.70
49132;DHT22;35149;51.196;6.204;2023-03-23T14:53:23;17.50;82.20
49132;DHT22;35149;51.196;6.204;2023-03-23T14:55:51;18.30;83.10
49132;DHT22;35149;51.196;6.204;2023-03-23T14:58:20;19.20;82.60
49132;DHT22;35149;51.196;6.204;2023-03-23T15:00:52;20.20;80.80
49132;DHT22;35149;51.196;6.204;2023-03-23T15:03:21;21.30;78.00
49132;DHT22;35149;51.196;6.204;2023-03-23T15:05:54;22.30;73.60
49132;DHT22;35149;51.196;6.204;2023-03-23T15:08:29;23.40;69.00
49132;DHT22;35149;51.196;6.204;2023-03-23T15:13:48;25.00;63.80
49132;DHT22;35149;51.196;6.204;2023-03-23T15:16:26;25.80;61.20
49132;DHT22;35149;51.196;6.204;2023-03-23T15:19:06;26.50;58.70
49132;DHT22;35149;51.196;6.204;2023-03-23T15:21:51;27.10;55.40
49132;DHT22;35149;51.196;6.204;2023-03-23T15:24:40;27.60;54.10
49132;DHT22;35149;51.196;6.204;2023-03-23T15:30:12;28.10;51.70
49132;DHT22;35149;51.196;6.204;2023-03-23T15:32:45;28.30;51.40
49132;DHT22;35149;51.196;6.204;2023-03-23T15:35:23;28.30;47.80
49132;DHT22;35149;51.196;6.204;2023-03-23T15:37:57;28.00;46.70
49132;DHT22;35149;51.196;6.204;2023-03-23T15:40:27;27.60;46.60
49132;DHT22;35149;51.196;6.204;2023-03-23T15:43:20;26.90;47.10
49132;DHT22;35149;51.196;6.204;2023-03-23T15:46:01;26.30;46.90
49132;DHT22;35149;51.196;6.204;2023-03-23T15:48:33;25.80;48.40
49132;DHT22;35149;51.196;6.204;2023-03-23T15:51:03;25.10;49.40
49132;DHT22;35149;51.196;6.204;2023-03-23T15:53:34;24.70;49.20
49132;DHT22;35149;51.196;6.204;2023-03-23T15:56:06;24.20;49.10
49132;DHT22;35149;51.196;6.204;2023-03-23T15:58:33;23.70;49.60
49132;DHT22;35149;51.196;6.204;2023-03-23T16:01:05;23.20;50.50
49132;DHT22;35149;51.196;6.204;2023-03-23T16:03:49;22.80;51.00
49132;DHT22;35149;51.196;6.204;2023-03-23T16:06:22;22.30;51.60
49132;DHT22;35149;51.196;6.204;2023-03-23T16:08:54;22.10;53.40
49132;DHT22;35149;51.196;6.204;2023-03-23T16:11:24;21.90;53.90
49132;DHT22;35149;51.196;6.204;2023-03-23T16:13:51;21.90;54.50
49132;DHT22;35149;51.196;6.204;2023-03-23T16:16:37;22.00;55.70
49132;DHT22;35149;51.196;6.204;2023-03-23T16:19:04;22.10;54.20
49132;DHT22;35149;51.196;6.204;2023-03-23T16:21:32;22.20;54.10
49132;DHT22;35149;51.196;6.204;2023-03-23T16:23:58;22.20;53.90
49132;DHT22;35149;51.196;6.204;2023-03-23T16:26:25;22.10;53.00
49132;DHT22;35149;51.196;6.204;2023-03-23T16:28:52;22.00;52.70
49132;DHT22;35149;51.196;6.204;2023-03-23T16:31:28;21.80;52.50
49132;DHT22;35149;51.196;6.204;2023-03-23T16:33:55;21.60;52.90
49132;DHT22;35149;51.196;6.204;2023-03-23T16:36:21;21.30;53.00
49132;DHT22;35149;51.196;6.204;2023-03-23T16:38:48;21.00;53.10
49132;DHT22;35149;51.196;6.204;2023-03-23T16:41:20;20.70;53.40
49132;DHT22;35149;51.196;6.204;2023-03-23T16:43:47;20.50;54.10
49132;DHT22;35149;51.196;6.204;2023-03-23T16:46:13;20.30;54.30
49132;DHT22;35149;51.196;6.204;2023-03-23T16:48:40;20.00;54.10
49132;DHT22;35149;51.196;6.204;2023-03-23T16:51:07;19.80;54.80
49132;DHT22;35149;51.196;6.204;2023-03-23T16:53:33;19.60;55.40
49132;DHT22;35149;51.196;6.204;2023-03-23T16:56:01;19.50;56.40
49132;DHT22;35149;51.196;6.204;2023-03-23T16:58:28;19.40;57.00
49132;DHT22;35149;51.196;6.204;2023-03-23T17:00:55;19.50;57.00
49132;DHT22;35149;51.196;6.204;2023-03-23T17:03:21;19.50;57.10
49132;DHT22;35149;51.196;6.204;2023-03-23T17:05:51;19.60;57.00
49132;DHT22;35149;51.196;6.204;2023-03-23T17:08:18;19.60;56.70
49132;DHT22;35149;51.196;6.204;2023-03-23T17:10:46;19.60;56.20
49132;DHT22;35149;51.196;6.204;2023-03-23T17:13:16;19.60;55.80
49132;DHT22;35149;51.196;6.204;2023-03-23T17:15:44;19.60;55.50
49132;DHT22;35149;51.196;6.204;2023-03-23T17:18:13;19.50;55.60
49132;DHT22;35149;51.196;6.204;2023-03-23T17:20:43;19.40;55.30
49132;DHT22;35149;51.196;6.204;2023-03-23T17:23:10;19.30;55.50
49132;DHT22;35149;51.196;6.204;2023-03-23T17:25:36;19.20;55.50
49132;DHT22;35149;51.196;6.204;2023-03-23T17:28:03;19.10;55.90
49132;DHT22;35149;51.196;6.204;2023-03-23T17:30:33;19.00;55.80
49132;DHT22;35149;51.196;6.204;2023-03-23T17:33:00;18.90;56.10
49132;DHT22;35149;51.196;6.204;2023-03-23T17:35:26;18.70;56.50
49132;DHT22;35149;51.196;6.204;2023-03-23T17:37:58;18.60;56.50
49132;DHT22;35149;51.196;6.204;2023-03-23T17:40:39;18.60;56.50
49132;DHT22;35149;51.196;6.204;2023-03-23T17:43:07;18.40;56.90
49132;DHT22;35149;51.196;6.204;2023-03-23T17:45:41;18.40;56.80
49132;DHT22;35149;51.196;6.204;2023-03-23T17:48:12;18.30;56.80